Time;durP1;ratioP1;P1;durP2;ratioP2;P2;SDS_P1;SDS_P2;PMS_P1;PMS_P2;Temp;Humidity;BMP_temperature;BMP_pressure;BME280_temperature;BME280_humidity;BME280_pressure;Samples;Min_cycle;Max_cycle;Signal;HPM_P1;HPM_P2
2024/04/13 00:00:26;;;;;;;2.33;1.40;;;;;;;;;;6725931;26;19999;-78
2024/04/13 00:03:26;;;;;;;1.50;1.37;;;;;;;;;;6725318;26;20010;-78
2024/04/13 00:06:27;;;;;;;1.50;1.33;;;;;;;;;;6720301;26;20340;-78
2024/04/13 00:09:27;;;;;;;1.30;1.20;;;;;;;;;;6701765;26;20003;-79
2024/04/13 00:12:27;;;;;;;1.37;1.20;;;;;;;;;;6719542;26;20000;-78
2024/04/13 00:15:30;;;;;;;3.07;1.40;;;;;;;;;;6664912;26;20039;-78
2024/04/13 00:18:33;;;;;;;1.50;1.40;;;;;;;;;;6726628;26;20221;-78
2024/04/13 00:21:33;;;;;;;2.15;1.55;;;;;;;;;;6692687;26;19996;-76
2024/04/13 00:24:34;;;;;;;3.53;1.70;;;;;;;;;;6684453;26;20037;-75
2024/04/13 00:27:34;;;;;;;1.63;1.53;;;;;;;;;;6703823;26;20016;-76
2024/04/13 00:30:34;;;;;;;1.50;1.27;;;;;;;;;;6725448;26;20015;-76
2024/04/13 00:33:38;;;;;;;1.67;1.50;;;;;;;;;;6725936;26;20004;-75
2024/04/13 00:36:39;;;;;;;1.42;1.33;;;;;;;;;;6693756;26;20070;-75
2024/04/13 00:39:39;;;;;;;1.63;1.40;;;;;;;;;;6650490;26;20012;-75
2024/04/13 00:42:39;;;;;;;1.40;1.30;;;;;;;;;;6692692;26;20023;-75
2024/04/13 00:45:46;;;;;;;1.67;1.33;;;;;;;;;;6705186;26;20225;-75
2024/04/13 00:48:49;;;;;;;1.83;1.33;;;;;;;;;;6723111;26;20011;-75
2024/04/13 00:51:52;;;;;;;1.95;1.40;;;;;;;;;;6719615;26;20414;-76
2024/04/13 00:54:55;;;;;;;2.38;1.60;;;;;;;;;;6723640;26;20003;-76
2024/04/13 00:57:57;;;;;;;1.65;1.48;;;;;;;;;;6724811;26;20007;-75
2024/04/13 01:00:58;;;;;;;1.80;1.55;;;;;;;;;;6688618;26;19995;-75
2024/04/13 01:03:59;;;;;;;1.60;1.38;;;;;;;;;;6706274;26;20000;-76
2024/04/13 01:07:00;;;;;;;1.58;1.48;;;;;;;;;;6722876;26;19996;-76
2024/04/13 01:10:00;;;;;;;2.53;1.73;;;;;;;;;;6725116;26;20416;-77
2024/04/13 01:13:01;;;;;;;4.10;1.23;;;;;;;;;;6714579;26;20048;-76
2024/04/13 01:16:01;;;;;;;2.33;1.63;;;;;;;;;;6718359;26;20008;-76
2024/04/13 01:19:01;;;;;;;1.60;1.50;;;;;;;;;;6680624;26;20001;-76
2024/04/13 01:22:02;;;;;;;1.65;1.55;;;;;;;;;;6701972;26;20477;-76
2024/04/13 01:25:03;;;;;;;2.22;1.40;;;;;;;;;;6724282;26;20005;-76
2024/04/13 01:28:04;;;;;;;1.75;1.52;;;;;;;;;;6719080;26;19999;-75
2024/04/13 01:31:04;;;;;;;2.03;1.58;;;;;;;;;;6724924;26;19994;-76
2024/04/13 01:34:04;;;;;;;1.93;1.50;;;;;;;;;;6723890;26;19995;-75
2024/04/13 01:37:07;;;;;;;1.65;1.55;;;;;;;;;;6711920;26;20324;-76
2024/04/13 01:40:08;;;;;;;2.22;1.58;;;;;;;;;;6719575;26;20027;-75
2024/04/13 01:43:08;;;;;;;2.03;1.80;;;;;;;;;;6694313;26;20329;-75
2024/04/13 01:46:09;;;;;;;1.58;1.33;;;;;;;;;;6681158;26;19992;-75
2024/04/13 01:49:11;;;;;;;2.05;1.80;;;;;;;;;;6679994;26;20450;-77
2024/04/13 01:52:13;;;;;;;2.47;1.77;;;;;;;;;;6678082;26;20011;-75
2024/04/13 01:55:13;;;;;;;1.65;1.55;;;;;;;;;;6680405;26;20024;-75
2024/04/13 01:58:13;;;;;;;1.90;1.70;;;;;;;;;;6697785;26;20019;-76
2024/04/13 02:01:13;;;;;;;1.70;1.57;;;;;;;;;;6704780;26;20101;-76
2024/04/13 02:04:14;;;;;;;2.07;1.70;;;;;;;;;;6648738;26;20445;-77
2024/04/13 02:07:14;;;;;;;2.23;1.67;;;;;;;;;;6686680;26;20075;-76
2024/04/13 02:10:15;;;;;;;2.13;1.63;;;;;;;;;;6768821;26;20430;-76
2024/04/13 02:13:15;;;;;;;3.72;1.88;;;;;;;;;;6721295;26;20452;-75
2024/04/13 02:16:15;;;;;;;2.53;1.43;;;;;;;;;;6705639;26;19995;-76
2024/04/13 02:19:15;;;;;;;2.93;1.57;;;;;;;;;;6705421;26;19992;-76
2024/04/13 02:22:18;;;;;;;1.80;1.45;;;;;;;;;;6666760;26;20000;-76
2024/04/13 02:25:18;;;;;;;2.10;1.77;;;;;;;;;;6723541;26;20004;-75
2024/04/13 02:28:18;;;;;;;1.90;1.70;;;;;;;;;;6723119;26;20427;-75
2024/04/13 02:31:19;;;;;;;1.43;1.33;;;;;;;;;;6715601;26;20429;-81
2024/04/13 02:34:19;;;;;;;1.77;1.67;;;;;;;;;;6699989;26;20463;-77
2024/04/13 02:37:19;;;;;;;1.75;1.60;;;;;;;;;;6657611;26;20001;-75
2024/04/13 02:40:23;;;;;;;1.63;1.47;;;;;;;;;;6708339;26;20008;-75
2024/04/13 02:43:23;;;;;;;3.25;1.60;;;;;;;;;;6722413;26;19999;-76
2024/04/13 02:46:24;;;;;;;2.40;1.80;;;;;;;;;;6691412;26;20392;-76
2024/04/13 02:49:24;;;;;;;1.73;1.63;;;;;;;;;;6719338;26;20218;-77
2024/04/13 02:52:24;;;;;;;1.43;1.33;;;;;;;;;;6701253;26;20003;-75
2024/04/13 02:55:24;;;;;;;1.70;1.60;;;;;;;;;;6685328;26;20444;-76
2024/04/13 02:58:25;;;;;;;1.90;1.60;;;;;;;;;;6694188;26;20471;-75
2024/04/13 03:01:26;;;;;;;3.60;1.60;;;;;;;;;;6683529;26;20465;-75
2024/04/13 03:04:26;;;;;;;2.15;1.75;;;;;;;;;;6717879;26;20031;-77
2024/04/13 03:07:29;;;;;;;1.70;1.60;;;;;;;;;;6690639;26;20010;-76
2024/04/13 03:10:29;;;;;;;2.42;1.88;;;;;;;;;;6688195;26;20001;-76
2024/04/13 03:13:30;;;;;;;2.40;1.90;;;;;;;;;;6695936;26;20473;-75
2024/04/13 03:16:31;;;;;;;1.80;1.67;;;;;;;;;;6683835;26;20091;-77
2024/04/13 03:19:32;;;;;;;1.70;1.50;;;;;;;;;;6682919;26;20011;-76
2024/04/13 03:22:33;;;;;;;1.88;1.52;;;;;;;;;;6693862;26;20440;-76
2024/04/13 03:25:33;;;;;;;2.72;2.00;;;;;;;;;;6725484;26;19991;-76
2024/04/13 03:28:34;;;;;;;2.30;1.70;;;;;;;;;;6726279;26;20006;-76
2024/04/13 03:31:34;;;;;;;2.58;1.40;;;;;;;;;;6698692;26;20071;-75
2024/04/13 03:34:35;;;;;;;2.47;1.50;;;;;;;;;;6693698;26;19999;-75
2024/04/13 03:37:36;;;;;;;2.10;1.57;;;;;;;;;;6726086;26;20005;-75
2024/04/13 03:40:36;;;;;;;1.80;1.70;;;;;;;;;;6724045;26;20093;-76
2024/04/13 03:43:37;;;;;;;2.47;1.67;;;;;;;;;;6725627;26;20000;-76
2024/04/13 03:46:37;;;;;;;2.40;1.55;;;;;;;;;;6726455;26;20213;-75
2024/04/13 03:49:37;;;;;;;2.07;1.50;;;;;;;;;;6700613;26;20032;-78
2024/04/13 03:52:37;;;;;;;1.57;1.47;;;;;;;;;;6725896;26;19987;-78
2024/04/13 03:55:38;;;;;;;4.07;1.77;;;;;;;;;;6722719;26;20034;-78
2024/04/13 03:58:38;;;;;;;1.70;1.60;;;;;;;;;;6701426;26;20515;-78
2024/04/13 04:01:38;;;;;;;1.92;1.73;;;;;;;;;;6698639;26;20348;-78
2024/04/13 04:04:38;;;;;;;1.77;1.60;;;;;;;;;;6680927;26;20514;-78
2024/04/13 04:07:39;;;;;;;1.67;1.57;;;;;;;;;;6693376;26;20357;-78
2024/04/13 04:10:40;;;;;;;1.77;1.67;;;;;;;;;;6723102;26;20313;-78
2024/04/13 04:13:40;;;;;;;2.40;1.70;;;;;;;;;;6712999;26;19999;-78
2024/04/13 04:16:41;;;;;;;1.80;1.55;;;;;;;;;;6715281;26;20481;-78
2024/04/13 04:19:41;;;;;;;2.87;1.80;;;;;;;;;;6692053;26;20003;-78
2024/04/13 04:22:41;;;;;;;3.13;1.77;;;;;;;;;;6725261;26;20516;-78
2024/04/13 04:25:42;;;;;;;1.60;1.50;;;;;;;;;;6726128;26;20023;-78
2024/04/13 04:28:42;;;;;;;2.03;1.63;;;;;;;;;;6664790;26;20004;-78
2024/04/13 04:31:42;;;;;;;2.17;1.97;;;;;;;;;;6685140;26;20403;-78
2024/04/13 04:34:43;;;;;;;2.20;1.70;;;;;;;;;;6698518;26;20503;-78
2024/04/13 04:37:43;;;;;;;2.03;1.83;;;;;;;;;;6712051;26;20006;-79
2024/04/13 04:40:44;;;;;;;3.33;2.03;;;;;;;;;;6694251;26;20049;-79
2024/04/13 04:43:44;;;;;;;1.77;1.67;;;;;;;;;;6693167;26;20003;-78
2024/04/13 04:46:44;;;;;;;1.80;1.70;;;;;;;;;;6683020;26;20476;-79
2024/04/13 04:49:45;;;;;;;2.17;1.77;;;;;;;;;;6680079;26;20494;-78
2024/04/13 04:52:46;;;;;;;2.17;1.92;;;;;;;;;;6682848;26;20349;-78
2024/04/13 04:55:46;;;;;;;2.00;1.80;;;;;;;;;;6705655;26;19992;-78
2024/04/13 04:58:46;;;;;;;2.43;2.13;;;;;;;;;;6732188;26;19991;-78
2024/04/13 05:01:47;;;;;;;1.88;1.70;;;;;;;;;;6720672;26;19996;-78
2024/04/13 05:04:47;;;;;;;2.47;1.93;;;;;;;;;;6723837;26;20002;-78
2024/04/13 05:07:47;;;;;;;2.13;1.93;;;;;;;;;;6724914;26;20404;-78
2024/04/13 05:10:48;;;;;;;2.20;1.80;;;;;;;;;;6716205;26;20288;-78
2024/04/13 05:13:48;;;;;;;2.15;1.75;;;;;;;;;;6718865;26;20041;-78
2024/04/13 05:16:48;;;;;;;1.88;1.67;;;;;;;;;;6724166;26;20461;-78
2024/04/13 05:19:49;;;;;;;2.70;1.73;;;;;;;;;;6689994;26;19995;-80
2024/04/13 05:22:49;;;;;;;2.07;1.63;;;;;;;;;;6723690;26;19995;-78
2024/04/13 05:25:49;;;;;;;2.50;1.80;;;;;;;;;;6723259;26;19987;-78
2024/04/13 05:28:49;;;;;;;2.63;2.07;;;;;;;;;;6716942;26;20011;-78
2024/04/13 05:31:49;;;;;;;2.07;1.87;;;;;;;;;;6722935;26;19999;-78
2024/04/13 05:34:50;;;;;;;2.03;1.83;;;;;;;;;;6691077;26;20329;-80
2024/04/13 05:37:51;;;;;;;2.20;1.80;;;;;;;;;;6720815;26;20000;-79
2024/04/13 05:40:54;;;;;;;2.15;1.75;;;;;;;;;;6724075;26;20348;-79
2024/04/13 05:43:54;;;;;;;2.13;1.83;;;;;;;;;;6717653;26;20635;-79
2024/04/13 05:46:54;;;;;;;2.00;1.70;;;;;;;;;;6715432;26;20087;-80
2024/04/13 05:49:54;;;;;;;3.50;1.97;;;;;;;;;;6716449;26;19996;-79
2024/04/13 05:52:55;;;;;;;1.97;1.73;;;;;;;;;;6713570;26;20044;-82
2024/04/13 05:55:55;;;;;;;3.35;1.73;;;;;;;;;;6720834;26;19995;-74
2024/04/13 05:58:55;;;;;;;2.17;1.73;;;;;;;;;;6708076;26;20003;-76
2024/04/13 06:01:56;;;;;;;1.77;1.67;;;;;;;;;;6722106;26;20043;-74
2024/04/13 06:04:56;;;;;;;2.05;1.75;;;;;;;;;;6716240;26;20023;-75
2024/04/13 06:07:56;;;;;;;;;;;;;;;;;;6719841;26;20427;-79
2024/04/13 06:10:57;;;;;;;2.63;1.50;;;;;;;;;;6723161;26;19925;-78
2024/04/13 06:13:57;;;;;;;;;;;;;;;;;;6718854;26;19999;-78
2024/04/13 06:16:58;;;;;;;3.90;3.03;;;;;;;;;;6720668;26;19957;-78
2024/04/13 06:19:58;;;;;;;3.35;2.80;;;;;;;;;;6717165;26;20000;-78
2024/04/13 06:22:58;;;;;;;;;;;;;;;;;;6692330;26;20001;-78
2024/04/13 06:25:59;;;;;;;2.25;1.65;;;;;;;;;;6720911;26;20002;-78
2024/04/13 06:28:59;;;;;;;;;;;;;;;;;;6728489;26;20398;-78
2024/04/13 06:31:59;;;;;;;1.45;1.35;;;;;;;;;;6689806;26;19956;-79
2024/04/13 06:34:59;;;;;;;;;;;;;;;;;;6722931;26;20006;-79
2024/04/13 06:38:00;;;;;;;2.25;1.33;;;;;;;;;;6726281;26;19953;-78
2024/04/13 06:41:00;;;;;;;;;;;;;;;;;;6728059;26;20455;-79
2024/04/13 06:44:03;;;;;;;3.45;1.45;;;;;;;;;;6727248;26;19933;-79
2024/04/13 06:47:03;;;;;;;1.80;1.48;;;;;;;;;;6722936;26;19995;-79
2024/04/13 06:50:03;;;;;;;;;;;;;;;;;;6719562;26;19999;-77
2024/04/13 06:53:03;;;;;;;1.50;1.40;;;;;;;;;;6723716;26;19953;-77
2024/04/13 06:56:04;;;;;;;;;;;;;;;;;;6691311;26;19995;-77
2024/04/13 06:59:04;;;;;;;2.53;1.55;;;;;;;;;;6715043;26;19965;-78
2024/04/13 07:02:04;;;;;;;;;;;;;;;;;;6722792;26;20007;-79
2024/04/13 07:05:06;;;;;;;1.77;1.30;;;;;;;;;;6720974;26;19993;-79
2024/04/13 07:08:07;;;;;;;1.58;1.45;;;;;;;;;;6720515;26;20014;-79
2024/04/13 07:11:07;;;;;;;;;;;;;;;;;;6727237;26;19996;-79
2024/04/13 07:14:10;;;;;;;1.90;1.52;;;;;;;;;;6717289;26;19925;-75
2024/04/13 07:17:10;;;;;;;3.33;1.70;;;;;;;;;;6724583;26;20024;-78
2024/04/13 07:20:10;;;;;;;4.37;3.30;;;;;;;;;;6724410;26;20355;-75
2024/04/13 07:23:11;;;;;;;3.17;2.70;;;;;;;;;;6724512;26;20261;-78
2024/04/13 07:26:11;;;;;;;2.55;2.08;;;;;;;;;;6725261;26;20628;-80
2024/04/13 07:29:11;;;;;;;2.13;1.80;;;;;;;;;;6726742;26;19995;-76
2024/04/13 07:32:11;;;;;;;1.87;1.77;;;;;;;;;;6721740;26;20225;-77
2024/04/13 07:35:12;;;;;;;2.00;1.80;;;;;;;;;;6723159;26;20787;-77
2024/04/13 07:38:12;;;;;;;1.95;1.52;;;;;;;;;;6725409;26;20310;-76
2024/04/13 07:41:12;;;;;;;1.57;1.33;;;;;;;;;;6722431;26;20030;-73
2024/04/13 07:44:13;;;;;;;1.63;1.33;;;;;;;;;;6725170;26;20293;-73
2024/04/13 07:47:14;;;;;;;2.20;1.35;;;;;;;;;;6725623;26;20732;-73
2024/04/13 07:50:14;;;;;;;1.63;1.10;;;;;;;;;;6719012;26;20007;-73
2024/04/13 07:53:14;;;;;;;2.20;1.33;;;;;;;;;;6726779;26;20000;-74
2024/04/13 07:56:14;;;;;;;1.63;1.20;;;;;;;;;;6723856;26;19999;-73
2024/04/13 07:59:15;;;;;;;4.23;1.50;;;;;;;;;;6724713;26;20241;-74
2024/04/13 08:02:15;;;;;;;4.22;1.60;;;;;;;;;;6728320;26;20229;-74
2024/04/13 08:05:15;;;;;;;4.77;1.90;;;;;;;;;;6725402;26;20042;-73
2024/04/13 08:08:16;;;;;;;3.90;1.55;;;;;;;;;;6720683;26;20218;-72
2024/04/13 08:11:16;;;;;;;2.70;1.35;;;;;;;;;;6726833;26;19992;-80
2024/04/13 08:14:16;;;;;;;2.85;1.13;;;;;;;;;;6689262;26;20018;-72
2024/04/13 08:17:16;;;;;;;1.57;1.17;;;;;;;;;;6718977;26;20003;-69
2024/04/13 08:20:17;;;;;;;3.53;1.17;;;;;;;;;;6722699;26;20729;-71
2024/04/13 08:23:17;;;;;;;2.47;1.00;;;;;;;;;;6718754;26;20582;-70
2024/04/13 08:26:17;;;;;;;2.27;0.90;;;;;;;;;;6719524;26;19996;-69
2024/04/13 08:29:17;;;;;;;1.45;1.00;;;;;;;;;;6720746;26;20241;-72
2024/04/13 08:32:18;;;;;;;2.10;0.95;;;;;;;;;;6716995;26;20004;-72
2024/04/13 08:35:18;;;;;;;0.60;0.60;;;;;;;;;;6338518;26;10000024;-71
2024/04/13 08:38:19;;;;;;;1.15;0.82;;;;;;;;;;6703378;26;19999;-71
2024/04/13 08:41:38;;;;;;;1.25;0.85;;;;;;;;;;6720802;26;20316;-71
2024/04/13 08:44:38;;;;;;;1.40;0.95;;;;;;;;;;6720889;26;20007;-71
2024/04/13 08:47:41;;;;;;;1.50;1.05;;;;;;;;;;6718544;26;20002;-71
2024/04/13 08:50:41;;;;;;;1.10;1.00;;;;;;;;;;6716773;26;20006;-72
2024/04/13 08:53:42;;;;;;;1.40;1.15;;;;;;;;;;6708592;26;20024;-72
2024/04/13 08:56:44;;;;;;;1.40;1.02;;;;;;;;;;6719451;26;20012;-74
2024/04/13 08:59:45;;;;;;;2.22;1.30;;;;;;;;;;6693016;26;20036;-74
2024/04/13 09:02:45;;;;;;;2.38;0.95;;;;;;;;;;6718564;26;20061;-74
2024/04/13 09:05:46;;;;;;;0.70;0.70;;;;;;;;;;6717645;26;19991;-72
2024/04/13 09:08:46;;;;;;;1.23;0.83;;;;;;;;;;6720869;26;20682;-72
2024/04/13 09:11:46;;;;;;;1.00;0.82;;;;;;;;;;6714208;26;20959;-71
2024/04/13 09:14:47;;;;;;;1.63;0.73;;;;;;;;;;6718361;26;20003;-71
2024/04/13 09:17:48;;;;;;;0.90;0.90;;;;;;;;;;6724205;26;20044;-71
2024/04/13 09:20:48;;;;;;;2.28;0.90;;;;;;;;;;6687128;26;20015;-72
2024/04/13 09:23:49;;;;;;;2.33;1.13;;;;;;;;;;6720671;26;20010;-73
2024/04/13 09:26:51;;;;;;;1.50;1.00;;;;;;;;;;6724325;26;20352;-73
2024/04/13 09:29:51;;;;;;;1.05;0.70;;;;;;;;;;6677061;26;20085;-74
2024/04/13 09:32:58;;;;;;;3.27;1.10;;;;;;;;;;6712888;26;20436;-73
2024/04/13 09:35:59;;;;;;;1.85;0.98;;;;;;;;;;6720764;26;20226;-73
2024/04/13 09:38:59;;;;;;;1.65;0.90;;;;;;;;;;6694379;26;20455;-74
2024/04/13 09:42:06;;;;;;;1.73;0.90;;;;;;;;;;6721872;26;20003;-74
2024/04/13 09:45:06;;;;;;;1.55;0.73;;;;;;;;;;6725135;26;20229;-73
2024/04/13 09:48:06;;;;;;;1.27;0.70;;;;;;;;;;6719662;26;20090;-75
2024/04/13 09:51:07;;;;;;;1.07;0.80;;;;;;;;;;6716050;26;20036;-74
2024/04/13 09:54:07;;;;;;;2.30;0.70;;;;;;;;;;6720870;26;20733;-74
2024/04/13 09:57:07;;;;;;;1.37;0.97;;;;;;;;;;6720906;26;20706;-74
2024/04/13 10:00:09;;;;;;;1.38;0.88;;;;;;;;;;6722737;26;20586;-74
2024/04/13 10:03:13;;;;;;;1.92;0.80;;;;;;;;;;6723531;26;20071;-74
2024/04/13 10:06:15;;;;;;;1.23;1.10;;;;;;;;;;6716140;26;19999;-74
2024/04/13 10:09:18;;;;;;;1.73;1.08;;;;;;;;;;6717366;26;19995;-75
2024/04/13 10:12:24;;;;;;;1.42;0.95;;;;;;;;;;6690654;26;20000;-74
2024/04/13 10:15:24;;;;;;;0.98;0.75;;;;;;;;;;6719643;26;20003;-74
2024/04/13 10:18:24;;;;;;;0.77;0.67;;;;;;;;;;6716841;26;20003;-74
2024/04/13 10:21:25;;;;;;;1.23;0.90;;;;;;;;;;6716582;26;20237;-74
2024/04/13 10:24:28;;;;;;;0.60;0.60;;;;;;;;;;6710180;26;20412;-75
2024/04/13 10:27:31;;;;;;;12.10;1.20;;;;;;;;;;6723043;26;20340;-73
2024/04/13 10:30:49;;;;;;;1.70;1.60;;;;;;;;;;6722885;26;20018;-78
2024/04/13 10:33:53;;;;;;;2.22;1.10;;;;;;;;;;6718608;26;20011;-74
2024/04/13 10:36:57;;;;;;;1.88;1.08;;;;;;;;;;6706191;26;20022;-73
2024/04/13 10:39:58;;;;;;;1.60;1.30;;;;;;;;;;6717155;26;19999;-77
2024/04/13 10:43:02;;;;;;;1.92;1.40;;;;;;;;;;6722348;26;20329;-76
2024/04/13 10:46:05;;;;;;;1.17;0.90;;;;;;;;;;6720524;26;20344;-76
2024/04/13 10:49:05;;;;;;;2.30;1.05;;;;;;;;;;6720622;26;20340;-74
2024/04/13 10:52:09;;;;;;;1.13;0.98;;;;;;;;;;6716283;26;20056;-75
2024/04/13 10:55:12;;;;;;;1.85;1.02;;;;;;;;;;6709929;26;20000;-80
2024/04/13 10:58:13;;;;;;;1.48;1.00;;;;;;;;;;6714194;26;19992;-78
2024/04/13 11:01:13;;;;;;;1.37;0.80;;;;;;;;;;6716229;26;20027;-77
2024/04/13 11:04:14;;;;;;;1.60;0.98;;;;;;;;;;6710812;26;20001;-77
2024/04/13 11:07:14;;;;;;;1.27;1.00;;;;;;;;;;6716510;26;20069;-81
2024/04/13 11:10:15;;;;;;;2.03;0.90;;;;;;;;;;6722354;26;20000;-77
2024/04/13 11:13:15;;;;;;;1.50;1.30;;;;;;;;;;6725280;26;19999;-75
2024/04/13 11:16:15;;;;;;;2.38;1.10;;;;;;;;;;6723616;26;20233;-73
2024/04/13 11:19:16;;;;;;;2.15;0.90;;;;;;;;;;6721182;26;20340;-74
2024/04/13 11:22:17;;;;;;;1.77;0.90;;;;;;;;;;6688314;26;20003;-74
2024/04/13 11:25:19;;;;;;;1.15;0.90;;;;;;;;;;6720038;26;20259;-74
2024/04/13 11:28:19;;;;;;;0.88;0.88;;;;;;;;;;6723750;26;20432;-74
2024/04/13 11:31:20;;;;;;;0.90;0.73;;;;;;;;;;6724290;26;20088;-81
2024/04/13 11:34:20;;;;;;;2.08;1.00;;;;;;;;;;6686941;26;20432;-77
2024/04/13 11:37:20;;;;;;;1.00;0.90;;;;;;;;;;6722904;26;19996;-80
2024/04/13 11:40:21;;;;;;;1.10;0.87;;;;;;;;;;6717742;26;20007;-72
2024/04/13 11:43:21;;;;;;;4.60;1.10;;;;;;;;;;6720958;26;20003;-74
2024/04/13 11:46:21;;;;;;;2.15;1.40;;;;;;;;;;6722916;26;20074;-79
2024/04/13 11:49:22;;;;;;;2.05;1.55;;;;;;;;;;6725065;26;20043;-73
2024/04/13 11:52:22;;;;;;;1.88;1.40;;;;;;;;;;6664652;26;20015;-72
2024/04/13 11:55:23;;;;;;;2.45;1.00;;;;;;;;;;6723329;26;20077;-74
2024/04/13 11:58:23;;;;;;;1.77;1.20;;;;;;;;;;6726212;26;20011;-74
2024/04/13 12:01:23;;;;;;;1.08;0.90;;;;;;;;;;6721914;26;19999;-73
2024/04/13 12:04:24;;;;;;;1.03;0.83;;;;;;;;;;6723012;26;20444;-73
2024/04/13 12:07:24;;;;;;;0.93;0.88;;;;;;;;;;6727100;26;20755;-74
2024/04/13 12:10:24;;;;;;;0.80;0.80;;;;;;;;;;6722357;26;20468;-74
2024/04/13 12:13:25;;;;;;;1.00;0.80;;;;;;;;;;6718241;26;20226;-74
2024/04/13 12:16:26;;;;;;;1.13;0.80;;;;;;;;;;6695723;26;20278;-73
2024/04/13 12:19:26;;;;;;;0.82;0.70;;;;;;;;;;6708622;26;20323;-73
2024/04/13 12:22:26;;;;;;;1.47;1.00;;;;;;;;;;6705783;26;20020;-73
2024/04/13 12:25:27;;;;;;;0.80;0.70;;;;;;;;;;6717484;26;20712;-73
2024/04/13 12:28:27;;;;;;;1.98;1.50;;;;;;;;;;6716585;26;20012;-74
2024/04/13 12:31:27;;;;;;;2.10;1.90;;;;;;;;;;6713694;26;20003;-74
2024/04/13 12:34:27;;;;;;;1.53;1.30;;;;;;;;;;6704299;26;20776;-73
2024/04/13 12:37:28;;;;;;;3.10;1.30;;;;;;;;;;6696399;26;20352;-73
2024/04/13 12:40:29;;;;;;;1.50;0.90;;;;;;;;;;6703293;26;20552;-73
2024/04/13 12:43:30;;;;;;;1.83;0.80;;;;;;;;;;6688882;26;20008;-73
2024/04/13 12:46:31;;;;;;;1.23;0.77;;;;;;;;;;6703006;26;20032;-74
2024/04/13 12:49:31;;;;;;;1.40;0.93;;;;;;;;;;6683911;26;19996;-73
2024/04/13 12:52:32;;;;;;;0.65;0.65;;;;;;;;;;6682686;26;20047;-73
2024/04/13 12:55:33;;;;;;;1.02;0.65;;;;;;;;;;6714463;26;20089;-72
2024/04/13 12:58:33;;;;;;;1.15;0.75;;;;;;;;;;6693334;26;20003;-72
2024/04/13 13:01:34;;;;;;;1.10;0.80;;;;;;;;;;6649845;26;20480;-72
2024/04/13 13:04:34;;;;;;;0.70;0.70;;;;;;;;;;6680800;26;19996;-74
2024/04/13 13:07:34;;;;;;;0.97;0.60;;;;;;;;;;6715423;26;20263;-75
2024/04/13 13:10:34;;;;;;;0.80;0.80;;;;;;;;;;6717356;26;20820;-74
2024/04/13 13:13:34;;;;;;;1.53;0.80;;;;;;;;;;6717517;26;20460;-76
2024/04/13 13:16:35;;;;;;;0.70;0.70;;;;;;;;;;6680717;26;20713;-72
2024/04/13 13:19:35;;;;;;;0.70;0.70;;;;;;;;;;6692674;26;19991;-76
2024/04/13 13:22:35;;;;;;;2.90;0.80;;;;;;;;;;6726882;26;20285;-77
2024/04/13 13:25:38;;;;;;;0.80;0.77;;;;;;;;;;6722751;26;20010;-73
2024/04/13 13:28:39;;;;;;;1.17;0.80;;;;;;;;;;6683780;26;19992;-73
2024/04/13 13:31:39;;;;;;;0.60;0.60;;;;;;;;;;6720737;26;20447;-71
2024/04/13 13:34:39;;;;;;;0.80;0.50;;;;;;;;;;6714220;26;20724;-70
2024/04/13 13:37:40;;;;;;;0.83;0.40;;;;;;;;;;6701797;26;20364;-70
2024/04/13 13:40:40;;;;;;;0.63;0.60;;;;;;;;;;6720156;26;20468;-72
2024/04/13 13:43:40;;;;;;;0.70;0.50;;;;;;;;;;6710330;26;20437;-72
2024/04/13 13:46:41;;;;;;;0.52;0.52;;;;;;;;;;6694326;26;20466;-71
2024/04/13 13:49:41;;;;;;;1.23;0.60;;;;;;;;;;6716011;26;20026;-73
2024/04/13 13:52:41;;;;;;;0.53;0.50;;;;;;;;;;6722027;26;20009;-71
2024/04/13 13:55:42;;;;;;;0.40;0.40;;;;;;;;;;6716010;26;20246;-75
2024/04/13 13:58:42;;;;;;;0.80;0.70;;;;;;;;;;6650065;26;20046;-72
2024/04/13 14:01:43;;;;;;;2.35;0.60;;;;;;;;;;6680126;26;20028;-70
2024/04/13 14:04:46;;;;;;;0.75;0.68;;;;;;;;;;6717264;26;20052;-73
2024/04/13 14:07:46;;;;;;;0.70;0.70;;;;;;;;;;6697083;26;20000;-77
2024/04/13 14:10:47;;;;;;;0.90;0.50;;;;;;;;;;6713957;26;20458;-71
2024/04/13 14:13:47;;;;;;;0.63;0.40;;;;;;;;;;6691976;26;20428;-69
2024/04/13 14:16:49;;;;;;;0.63;0.60;;;;;;;;;;6724324;26;20006;-72
2024/04/13 14:19:50;;;;;;;1.08;0.50;;;;;;;;;;6728628;26;20239;-72
2024/04/13 14:22:50;;;;;;;0.50;0.50;;;;;;;;;;6685852;26;19992;-72
2024/04/13 14:25:50;;;;;;;2.05;0.50;;;;;;;;;;6692330;26;20000;-75
2024/04/13 14:28:50;;;;;;;0.50;0.50;;;;;;;;;;6683286;26;19996;-69
2024/04/13 14:31:51;;;;;;;0.50;0.50;;;;;;;;;;6688268;26;20444;-68
2024/04/13 14:34:51;;;;;;;0.70;0.70;;;;;;;;;;6695501;26;20449;-72
2024/04/13 14:37:53;;;;;;;0.65;0.60;;;;;;;;;;6694397;26;20450;-71
2024/04/13 14:40:54;;;;;;;0.65;0.60;;;;;;;;;;6723188;26;20003;-70
2024/04/13 14:43:54;;;;;;;2.43;2.23;;;;;;;;;;6708893;26;20448;-75
2024/04/13 14:46:54;;;;;;;1.42;1.30;;;;;;;;;;6699042;26;20229;-73
2024/04/13 14:49:55;;;;;;;0.90;0.90;;;;;;;;;;6697568;26;20050;-75
2024/04/13 14:52:55;;;;;;;2.05;1.55;;;;;;;;;;6723566;26;20446;-71
2024/04/13 14:55:55;;;;;;;2.83;1.43;;;;;;;;;;6719644;26;20067;-75
2024/04/13 14:58:57;;;;;;;1.30;0.70;;;;;;;;;;6707722;26;20269;-71
2024/04/13 15:01:58;;;;;;;1.20;0.82;;;;;;;;;;6726921;26;20072;-69
2024/04/13 15:04:58;;;;;;;1.07;0.70;;;;;;;;;;6723800;26;20003;-73
2024/04/13 15:07:59;;;;;;;0.60;0.60;;;;;;;;;;6722004;26;20019;-74
2024/04/13 15:10:59;;;;;;;2.92;2.58;;;;;;;;;;6714707;26;20006;-73
2024/04/13 15:14:00;;;;;;;4.18;2.78;;;;;;;;;;6714964;26;20012;-75
2024/04/13 15:17:00;;;;;;;1.47;1.37;;;;;;;;;;6758602;26;20393;-73
2024/04/13 15:20:01;;;;;;;0.93;0.83;;;;;;;;;;6732145;26;20217;-74
2024/04/13 15:23:01;;;;;;;0.55;0.55;;;;;;;;;;6715756;26;20049;-74
2024/04/13 15:26:01;;;;;;;0.80;0.60;;;;;;;;;;6724034;26;20040;-74
2024/04/13 15:29:01;;;;;;;0.60;0.60;;;;;;;;;;6693021;26;20277;-74
2024/04/13 15:32:02;;;;;;;0.50;0.50;;;;;;;;;;6707174;26;20065;-75
2024/04/13 15:35:04;;;;;;;1.38;0.73;;;;;;;;;;6707120;26;20075;-74
2024/04/13 15:38:04;;;;;;;1.90;0.90;;;;;;;;;;6697758;26;20011;-75
2024/04/13 15:41:04;;;;;;;0.90;0.80;;;;;;;;;;6721830;26;19997;-73
2024/04/13 15:44:04;;;;;;;1.00;0.90;;;;;;;;;;6726196;26;19996;-71
2024/04/13 15:47:05;;;;;;;0.68;0.60;;;;;;;;;;6726227;26;20004;-71
2024/04/13 15:50:05;;;;;;;1.17;0.70;;;;;;;;;;6723983;26;20000;-74
2024/04/13 15:53:08;;;;;;;2.15;0.75;;;;;;;;;;6685952;26;19996;-70
2024/04/13 15:56:09;;;;;;;0.95;0.50;;;;;;;;;;6723822;26;20002;-71
2024/04/13 15:59:09;;;;;;;0.80;0.60;;;;;;;;;;6682954;26;19996;-71
2024/04/13 16:02:10;;;;;;;0.60;0.60;;;;;;;;;;6680205;26;20472;-71
2024/04/13 16:05:11;;;;;;;0.65;0.50;;;;;;;;;;6708114;26;20000;-71
2024/04/13 16:08:11;;;;;;;0.40;0.40;;;;;;;;;;6681040;26;19996;-70
2024/04/13 16:11:11;;;;;;;0.63;0.60;;;;;;;;;;6721782;26;20036;-71
2024/04/13 16:14:11;;;;;;;0.63;0.50;;;;;;;;;;6700654;26;20658;-72
2024/04/13 16:17:11;;;;;;;0.40;0.40;;;;;;;;;;6722045;26;20506;-72
2024/04/13 16:20:16;;;;;;;0.50;0.50;;;;;;;;;;6710080;26;20472;-75
2024/04/13 16:23:16;;;;;;;0.80;0.73;;;;;;;;;;6705380;26;20100;-76
2024/04/13 16:26:16;;;;;;;0.93;0.50;;;;;;;;;;6693922;26;20004;-76
2024/04/13 16:29:16;;;;;;;0.40;0.40;;;;;;;;;;6724710;26;20007;-77
2024/04/13 16:32:17;;;;;;;0.40;0.40;;;;;;;;;;6722325;26;20221;-76
2024/04/13 16:35:17;;;;;;;0.47;0.47;;;;;;;;;;6696556;26;20270;-75
2024/04/13 16:38:17;;;;;;;0.77;0.50;;;;;;;;;;6713420;26;20759;-78
2024/04/13 16:41:18;;;;;;;3.00;1.88;;;;;;;;;;6676776;26;20564;-81
2024/04/13 16:44:18;;;;;;;1.60;1.50;;;;;;;;;;6713377;26;20533;-77
2024/04/13 16:47:18;;;;;;;1.10;1.00;;;;;;;;;;6709937;26;20436;-78
2024/04/13 16:50:19;;;;;;;0.50;0.50;;;;;;;;;;6722800;26;20721;-73
2024/04/13 16:53:19;;;;;;;1.10;1.00;;;;;;;;;;6724026;26;20577;-73
2024/04/13 16:56:20;;;;;;;1.98;1.05;;;;;;;;;;6672044;26;19992;-73
2024/04/13 16:59:20;;;;;;;1.85;1.20;;;;;;;;;;6725432;26;20094;-74
2024/04/13 17:02:20;;;;;;;1.00;0.90;;;;;;;;;;6692428;26;20000;-74
2024/04/13 17:05:21;;;;;;;1.30;0.95;;;;;;;;;;6720605;26;20010;-73
2024/04/13 17:08:25;;;;;;;1.00;0.90;;;;;;;;;;6716342;26;20449;-73
2024/04/13 17:11:25;;;;;;;0.80;0.80;;;;;;;;;;6688022;26;19996;-74
2024/04/13 17:14:25;;;;;;;1.33;0.90;;;;;;;;;;6723986;26;19998;-74
2024/04/13 17:17:25;;;;;;;0.90;0.80;;;;;;;;;;6725362;26;20268;-72
2024/04/13 17:20:26;;;;;;;0.83;0.80;;;;;;;;;;6706508;26;20230;-73
2024/04/13 17:23:26;;;;;;;0.60;0.60;;;;;;;;;;6704221;26;20812;-75
2024/04/13 17:26:26;;;;;;;2.13;2.03;;;;;;;;;;6710736;26;20709;-75
2024/04/13 17:29:26;;;;;;;2.50;2.30;;;;;;;;;;6699458;26;20760;-76
2024/04/13 17:32:27;;;;;;;2.80;1.60;;;;;;;;;;6691538;26;20765;-76
2024/04/13 17:35:27;;;;;;;2.17;1.37;;;;;;;;;;6718918;26;20027;-76
2024/04/13 17:38:28;;;;;;;1.55;1.45;;;;;;;;;;6687967;26;20726;-75
2024/04/13 17:41:29;;;;;;;1.67;1.10;;;;;;;;;;6699880;26;20004;-73
2024/04/13 17:44:29;;;;;;;1.90;1.80;;;;;;;;;;6691641;26;20016;-75
2024/04/13 17:47:30;;;;;;;2.30;2.10;;;;;;;;;;6724764;26;20086;-74
2024/04/13 17:50:30;;;;;;;2.13;1.73;;;;;;;;;;6720179;26;20233;-74
2024/04/13 17:53:30;;;;;;;1.90;1.30;;;;;;;;;;6710590;26;20770;-73
2024/04/13 17:56:30;;;;;;;2.17;1.27;;;;;;;;;;6704002;26;20778;-75
2024/04/13 17:59:31;;;;;;;1.03;0.93;;;;;;;;;;6701544;26;20677;-74
2024/04/13 18:02:31;;;;;;;0.95;0.90;;;;;;;;;;6695500;26;20233;-75
2024/04/13 18:05:32;;;;;;;1.52;1.02;;;;;;;;;;6705751;26;20003;-74